< < Back
Terminal Aerodrome Forecast


Current Version              Previous Versions:   1  2  3  4  5  6  7  8  9  

Terminal Aerodrome Forecast

081
FTUS44 KMRX 251227 AAA
TAFCHA
TAF AMD
KCHA 251227Z 2512/2612 VRB05KT 2SM -SHRA BR BKN007 OVC050
     FM251400 23005KT P6SM BKN012 BKN100
     FM251700 23012KT P6SM BKN030 OVC060
     FM252300 22008KT P6SM BKN050
     FM260200 28007KT P6SM BKN100=



Latest METAR

940
SAUS80 KWBC 251600
MTRCHA
METAR KCHA 251553Z 19007KT 7SM SCT008 BKN014 BKN100 19/16 A2974 RMK AO2
SLP064 T01940161


USA.gov is the U.S. government's official web portal to all federal, state and local government web resources and services.